Newark, TX (76071)

9:45 PM CST on November 20, 2014 (GMT -0600)
North Lake | Change Station
CLOSE
Current Station
Personal Weather Station
Location: Newark, TX
Elevation: 692 ft
Nearby Weather Stations

Elev 692 ft 33.00 °N, 97.51 °W | Updated 39 seconds ago

Clear
Clear
60.3 °F
Feels Like 60.3 °F
N
6.0
Wind Variable Wind from South

Today
High -- | Low -- °F
--% Chance of Precip.
Yesterday
High -- | Low -- °F
Precip. -- in
7:05 AM 5:25 PM
Waning Crescent, 2% visible
Pressure 30.01 in
Visibility 10.0 miles
Clouds Clear
Dew Point 53 °F
Humidity 78%
Rainfall 0.00 in
Snow Depth Not available.
UV 0 out of 12
Pollen 2.90 out of 12
Air Quality Not available.
Flu Activity Not available.
METAR KAFW 210253Z 16009KT 10SM CLR 16/13 A3002 RMK AO2 SLP163 T01610128 51013 $

More Conditions Fewer Conditions

Pressure 30.01 in
Visibility 10.0 miles
Clouds Clear
Dew Point 53 °F
Humidity 78%
Rainfall 0.00 in
Snow Depth Not available.
UV 0 out of 12
Pollen 2.90 out of 12
Air Quality Not available.
Flu Activity Not available.
METAR KAFW 210253Z 16009KT 10SM CLR 16/13 A3002 RMK AO2 SLP163 T01610128 51013 $

More Conditions Fewer Conditions

Nowcast | as of 9:18 PM CST on November 20, 2014

Scattered showers will continue to affect areas generally south of I-20 and east of I-35 this evening. Rainfall will be light to moderate...producing totals of generally less than a tenth of an inch through midnight. Showers are moving northeast at 25 mph.

×

10-Day Weather Forecast

Almanac

Astronomy

Nov. 20, 2014 Rise Set
Actual Time
Civil Twilight
Nautical Twilight
Astronomical Twilight
Moon
Length of Visible Light
Length of Day
Tomorrow will be .
, % of the Moon is Illuminated

Today's Extremes

State Highs State Lows

Community

WunderPhotos

Upload Photos

1,772,612 photos uploaded!

WunderBlogs® & News

Nearby

Air Quality

  Air Quality AQ Index Pollutant
Not available.

Snow Depth

Station Depth Elevation

Earthquake Activity

City Distance Mag. Time & Date
Minimum magnitude displayed is 2.5.

Coastal Water Temperatures

Place Temperature

Nearby Weather Stations